This is the latest recevied weather packets stored in our database for station/object K6CQU-13. If no packets are shown the sender has not sent any weather packets the latest 10 day(s).
| Time | Temp. | Humidity | Pressure | Rain* | Wind** | Luminosity | Snow |
|---|---|---|---|---|---|---|---|
| 1778173816 | 18.89° C | 72% | 1018.7 hPa | 0 mm | - | 676 W/m² | - |
| 1778173516 | 18.33° C | 72% | 1018.7 hPa | 0 mm | - | 663 W/m² | - |
| 1778173216 | 18.89° C | 72% | 1018.7 hPa | 0 mm | - | 650 W/m² | - |
| 1778172917 | 18.89° C | 71% | 1018.8 hPa | 0 mm | - | 637 W/m² | - |
| 1778172617 | 18.89° C | 72% | 1018.8 hPa | 0 mm | - | 623 W/m² | - |
| 1778172317 | 18.89° C | 72% | 1018.8 hPa | 0 mm | - | 609 W/m² | - |
| 1778172017 | 18.89° C | 72% | 1018.8 hPa | 0 mm | - | 595 W/m² | - |
| 1778171716 | 18.89° C | 72% | 1018.8 hPa | 0 mm | - | 583 W/m² | - |
| 1778171416 | 18.89° C | 71% | 1018.7 hPa | 0 mm | - | 568 W/m² | - |
| 1778171116 | 19.44° C | 70% | 1018.7 hPa | 0 mm | - | 554 W/m² | - |
| 1778170816 | 19.44° C | 70% | 1018.7 hPa | 0 mm | - | 539 W/m² | - |
| 1778170516 | 18.89° C | 71% | 1018.7 hPa | 0 mm | - | 522 W/m² | - |
| 1778170216 | 18.89° C | 71% | 1018.7 hPa | 0 mm | - | 507 W/m² | - |
| 1778169916 | 18.89° C | 72% | 1018.8 hPa | 0 mm | - | 492 W/m² | - |
| 1778169616 | 18.89° C | 71% | 1018.7 hPa | 0 mm | - | 477 W/m² | - |
| 1778169316 | 18.33° C | 73% | 1018.7 hPa | 0 mm | - | 461 W/m² | - |
| 1778169016 | 18.33° C | 74% | 1018.7 hPa | 0 mm | - | 444 W/m² | - |
| 1778168717 | 17.78° C | 75% | 1018.8 hPa | 0 mm | - | 427 W/m² | - |
| 1778168416 | 17.78° C | 78% | 1018.8 hPa | 0 mm | - | 411 W/m² | - |
| 1778168116 | 17.22° C | 79% | 1018.8 hPa | 0 mm | - | 395 W/m² | - |
| 1778167816 | 16.67° C | 81% | 1018.8 hPa | 0 mm | - | 381 W/m² | - |
| 1778167517 | 16.11° C | 82% | 1018.8 hPa | 0 mm | - | 366 W/m² | - |
| 1778167216 | 16.11° C | 83% | 1018.9 hPa | 0 mm | - | 349 W/m² | - |
| 1778166916 | 15.56° C | 87% | 1019 hPa | 0 mm | - | 332 W/m² | - |
| 1778166616 | 15° C | 88% | 1018.9 hPa | 0 mm | - | 315 W/m² | - |
* Rain latest hour (hover to see other rain measurements)
** Current wind speed in m/s (hover to see current wind gust speed)